Time;durP1;ratioP1;P1;durP2;ratioP2;P2;SDS_P1;SDS_P2;PMS_P1;PMS_P2;Temp;Humidity;BMP_temperature;BMP_pressure;BME280_temperature;BME280_humidity;BME280_pressure;Samples;Min_cycle;Max_cycle;Signal;HPM_P1;HPM_P2
2022/04/20 00:01:06;;;;;;;6.60;4.70;;;4.00;99.90;;;;;;5060374;28;20225;-67
2022/04/20 00:03:31;;;;;;;6.10;4.47;;;4.00;99.90;;;;;;5059356;28;20176;-66
2022/04/20 00:05:57;;;;;;;9.20;5.20;;;3.90;99.90;;;;;;5060232;28;20327;-69
2022/04/20 00:08:23;;;;;;;7.80;5.40;;;3.80;99.90;;;;;;5058640;28;20197;-67
2022/04/20 00:10:49;;;;;;;7.53;4.90;;;3.80;99.90;;;;;;5040804;28;20188;-66
2022/04/20 00:13:14;;;;;;;8.80;4.83;;;3.80;99.90;;;;;;5056330;28;20251;-66
2022/04/20 00:15:40;;;;;;;7.67;4.97;;;3.80;99.90;;;;;;5056900;28;20161;-66
2022/04/20 00:18:06;;;;;;;8.47;4.80;;;3.80;99.90;;;;;;5058226;28;20231;-66
2022/04/20 00:20:31;;;;;;;7.37;5.37;;;3.90;99.90;;;;;;5072585;28;20247;-66
2022/04/20 00:22:57;;;;;;;7.73;5.13;;;3.80;99.90;;;;;;5065789;28;20512;-69
2022/04/20 00:25:22;;;;;;;6.47;4.87;;;3.50;99.90;;;;;;5056391;28;20165;-66
2022/04/20 00:27:48;;;;;;;7.90;5.10;;;3.50;99.90;;;;;;5056361;28;20604;-66
2022/04/20 00:30:14;;;;;;;8.10;5.20;;;3.50;99.90;;;;;;5057407;28;20592;-67
2022/04/20 00:32:40;;;;;;;7.60;5.10;;;3.60;99.90;;;;;;5057762;28;20166;-65
2022/04/20 00:35:13;;;;;;;6.07;4.77;;;3.50;99.90;;;;;;5057489;28;20246;-67
2022/04/20 00:37:41;;;;;;;6.83;4.77;;;3.50;99.90;;;;;;5057109;28;20247;-66
2022/04/20 00:40:08;;;;;;;9.03;4.63;;;3.40;99.90;;;;;;5057466;28;20223;-66
2022/04/20 00:42:36;;;;;;;7.77;5.10;;;3.40;99.90;;;;;;5041576;28;20208;-66
2022/04/20 00:45:02;;;;;;;10.40;5.60;;;3.40;99.90;;;;;;5059718;28;20164;-66
2022/04/20 00:47:29;;;;;;;5.30;4.80;;;3.40;99.90;;;;;;5059190;28;20192;-67
2022/04/20 00:49:57;;;;;;;7.60;4.97;;;3.60;99.90;;;;;;5057058;28;20170;-65
2022/04/20 00:52:22;;;;;;;7.50;4.73;;;3.40;99.90;;;;;;5054731;28;20612;-66
2022/04/20 00:54:48;;;;;;;6.63;5.10;;;3.20;99.90;;;;;;5054728;28;20186;-65
2022/04/20 00:57:15;;;;;;;6.97;5.10;;;3.30;99.90;;;;;;5055056;28;20161;-66
2022/04/20 00:59:42;;;;;;;7.10;4.97;;;3.50;99.90;;;;;;5054566;28;20216;-66
2022/04/20 01:02:08;;;;;;;6.63;4.90;;;3.50;99.90;;;;;;5054729;28;20166;-66
2022/04/20 01:04:34;;;;;;;5.77;4.70;;;3.60;99.90;;;;;;5054511;28;20481;-67
2022/04/20 01:07:12;;;;;;;6.77;4.83;;;3.50;99.90;;;;;;5054858;28;20192;-66
2022/04/20 01:09:40;;;;;;;5.17;4.67;;;3.40;99.90;;;;;;5054471;28;20175;-66
2022/04/20 01:12:06;;;;;;;7.57;5.20;;;3.40;99.90;;;;;;5054399;28;20169;-68
2022/04/20 01:14:32;;;;;;;7.27;5.43;;;3.40;99.90;;;;;;5054326;28;20222;-66
2022/04/20 01:16:58;;;;;;;9.00;6.00;;;3.50;99.90;;;;;;5054573;28;20204;-66
2022/04/20 01:19:35;;;;;;;6.77;4.40;;;3.50;99.90;;;;;;5054869;28;20604;-66
2022/04/20 01:22:04;;;;;;;6.50;4.50;;;3.50;99.90;;;;;;5054516;28;20214;-66
2022/04/20 01:24:29;;;;;;;6.93;4.97;;;3.40;99.90;;;;;;5053863;28;20260;-67
2022/04/20 01:26:56;;;;;;;5.07;4.30;;;3.30;99.90;;;;;;5054641;28;20373;-66
2022/04/20 01:29:22;;;;;;;9.27;5.10;;;3.30;99.90;;;;;;5054685;28;20179;-67
2022/04/20 01:31:48;;;;;;;6.17;5.20;;;3.30;99.90;;;;;;5054545;28;20156;-66
2022/04/20 01:34:14;;;;;;;8.27;5.30;;;3.20;99.90;;;;;;5036765;28;20172;-67
2022/04/20 01:36:40;;;;;;;5.90;4.53;;;3.30;99.90;;;;;;5054666;28;20197;-66
2022/04/20 01:39:06;;;;;;;6.33;4.60;;;3.20;99.90;;;;;;5054422;28;20227;-66
2022/04/20 01:41:31;;;;;;;5.93;5.00;;;3.20;99.90;;;;;;5036716;28;20177;-66
2022/04/20 01:43:57;;;;;;;7.37;5.10;;;3.20;99.90;;;;;;5053948;28;20167;-68
2022/04/20 01:46:23;;;;;;;8.47;5.70;;;3.20;99.90;;;;;;5053637;28;20176;-67
2022/04/20 01:48:49;;;;;;;5.83;4.57;;;3.20;99.90;;;;;;5053929;28;20192;-66
2022/04/20 01:53:59;;;;;;;5.77;4.77;;;3.30;99.90;;;;;;5053855;28;20168;-66
2022/04/20 01:56:25;;;;;;;6.33;4.83;;;3.20;99.90;;;;;;5053791;28;20167;-67
2022/04/20 01:58:50;;;;;;;6.30;5.20;;;3.20;99.90;;;;;;5053894;28;20164;-67
2022/04/20 02:04:00;;;;;;;6.13;4.77;;;3.20;99.90;;;;;;5053766;28;20203;-67
2022/04/20 02:06:25;;;;;;;7.93;5.03;;;3.10;99.90;;;;;;5053678;28;20196;-66
2022/04/20 02:08:51;;;;;;;6.30;5.23;;;3.20;99.90;;;;;;5053429;28;20671;-65
2022/04/20 02:11:16;;;;;;;6.93;4.97;;;3.10;99.90;;;;;;5053060;28;20165;-66
2022/04/20 02:13:43;;;;;;;5.93;4.93;;;3.00;99.90;;;;;;5053453;28;20168;-68
2022/04/20 02:16:08;;;;;;;6.97;4.90;;;3.00;99.90;;;;;;5036412;28;20242;-66
2022/04/20 02:18:34;;;;;;;8.33;5.50;;;3.00;99.90;;;;;;5053310;28;20172;-66
2022/04/20 02:21:00;;;;;;;10.43;5.67;;;2.90;99.90;;;;;;5054304;28;20167;-66
2022/04/20 02:23:26;;;;;;;7.70;5.37;;;2.80;99.90;;;;;;5035802;28;20171;-67
2022/04/20 02:25:52;;;;;;;7.10;5.17;;;2.80;99.90;;;;;;5053540;28;20164;-66
2022/04/20 02:28:18;;;;;;;6.87;4.80;;;2.70;99.90;;;;;;5053087;28;20605;-67
2022/04/20 02:30:44;;;;;;;5.47;4.70;;;2.80;99.90;;;;;;5052788;28;20168;-67
2022/04/20 02:33:10;;;;;;;6.13;5.10;;;2.80;99.90;;;;;;5053432;28;20168;-66
2022/04/20 02:35:36;;;;;;;5.60;4.83;;;2.80;99.90;;;;;;5057883;28;20152;-67
2022/04/20 02:38:03;;;;;;;7.03;5.10;;;2.80;99.90;;;;;;5056528;28;20171;-65
2022/04/20 02:40:30;;;;;;;6.67;4.77;;;2.80;99.90;;;;;;5058064;28;20188;-66
2022/04/20 02:42:56;;;;;;;6.57;5.37;;;2.80;99.90;;;;;;5056007;28;20171;-67
2022/04/20 02:45:22;;;;;;;7.40;5.07;;;2.70;99.90;;;;;;5053823;28;20633;-65
2022/04/20 02:47:48;;;;;;;7.57;5.37;;;2.80;99.90;;;;;;5053560;28;20192;-67
2022/04/20 02:50:13;;;;;;;5.70;4.67;;;2.70;99.90;;;;;;5053554;28;20222;-66
2022/04/20 02:52:39;;;;;;;7.17;5.00;;;2.70;99.90;;;;;;5053489;28;20172;-68
2022/04/20 02:55:05;;;;;;;7.03;5.57;;;2.70;99.90;;;;;;5053708;28;20553;-66
2022/04/20 02:57:30;;;;;;;6.80;4.73;;;2.70;99.90;;;;;;5054332;28;20264;-65
2022/04/20 02:59:56;;;;;;;5.93;4.60;;;2.70;99.90;;;;;;5055847;28;20199;-66
2022/04/20 03:02:21;;;;;;;6.17;4.57;;;2.70;99.90;;;;;;5057816;28;20164;-68
2022/04/20 03:04:47;;;;;;;5.97;4.93;;;2.60;99.90;;;;;;5058140;28;20596;-66
2022/04/20 03:07:13;;;;;;;7.13;5.20;;;2.70;99.90;;;;;;5055992;28;20215;-68
2022/04/20 03:09:38;;;;;;;8.10;5.37;;;2.40;99.90;;;;;;5061575;28;20174;-66
2022/04/20 03:12:04;;;;;;;5.80;4.93;;;2.40;99.90;;;;;;5059684;28;20214;-70
2022/04/20 03:14:30;;;;;;;7.53;5.20;;;2.50;99.90;;;;;;5058670;28;20240;-67
2022/04/20 03:16:55;;;;;;;8.87;5.70;;;2.50;99.90;;;;;;5057318;28;20200;-65
2022/04/20 03:19:21;;;;;;;6.87;5.03;;;2.50;99.90;;;;;;5059205;28;20172;-67
2022/04/20 03:21:47;;;;;;;10.43;5.27;;;2.50;99.90;;;;;;5058284;28;20184;-66
2022/04/20 03:24:13;;;;;;;7.57;5.30;;;2.40;99.90;;;;;;5059241;28;20302;-66
2022/04/20 03:26:39;;;;;;;8.37;5.93;;;2.40;99.90;;;;;;5057500;28;20164;-67
2022/04/20 03:29:05;;;;;;;6.50;5.10;;;2.40;99.90;;;;;;5056812;28;20169;-65
2022/04/20 03:31:32;;;;;;;7.03;5.20;;;2.30;99.90;;;;;;5057031;28;20210;-66
2022/04/20 03:33:57;;;;;;;9.60;6.23;;;2.30;99.90;;;;;;5055300;28;20271;-68
2022/04/20 03:36:23;;;;;;;8.17;5.63;;;2.30;99.90;;;;;;5057057;28;20613;-66
2022/04/20 03:38:48;;;;;;;6.60;5.10;;;2.40;99.90;;;;;;5062656;28;20732;-66
2022/04/20 03:41:14;;;;;;;6.47;4.97;;;2.40;99.90;;;;;;5076120;28;20323;-68
2022/04/20 03:43:40;;;;;;;9.07;5.27;;;2.40;99.90;;;;;;5057417;28;20240;-66
2022/04/20 03:46:06;;;;;;;8.43;5.50;;;2.30;99.90;;;;;;5057124;28;20161;-67
2022/04/20 03:48:31;;;;;;;7.20;5.73;;;2.50;99.90;;;;;;5056356;28;20250;-66
2022/04/20 03:50:57;;;;;;;6.33;4.77;;;2.50;99.90;;;;;;5056352;28;20168;-67
2022/04/20 03:53:23;;;;;;;10.33;5.83;;;2.60;99.90;;;;;;5056182;28;20164;-67
2022/04/20 03:55:49;;;;;;;7.30;5.73;;;2.70;99.90;;;;;;5055885;28;20192;-67
2022/04/20 03:58:14;;;;;;;7.70;5.33;;;2.60;99.90;;;;;;5056148;28;20164;-66
2022/04/20 04:00:40;;;;;;;7.37;5.83;;;2.40;99.90;;;;;;5056293;28;20168;-66
2022/04/20 04:03:06;;;;;;;8.90;5.50;;;2.50;99.90;;;;;;5056160;28;20517;-67
2022/04/20 04:05:32;;;;;;;8.90;5.80;;;2.40;99.90;;;;;;5056707;28;20157;-66
2022/04/20 04:07:57;;;;;;;9.30;6.13;;;2.30;99.90;;;;;;5055803;28;20192;-68
2022/04/20 04:10:23;;;;;;;7.17;5.50;;;2.30;99.90;;;;;;5055958;28;20171;-65
2022/04/20 04:12:49;;;;;;;7.73;5.53;;;2.30;99.90;;;;;;5056248;28;20187;-64
2022/04/20 04:15:14;;;;;;;9.93;6.13;;;2.40;99.90;;;;;;5056426;28;20160;-66
2022/04/20 04:17:40;;;;;;;8.47;6.00;;;2.40;99.90;;;;;;5040039;28;20493;-65
2022/04/20 04:20:07;;;;;;;8.20;6.10;;;2.50;99.90;;;;;;5060219;28;20179;-65
2022/04/20 04:22:34;;;;;;;7.30;5.43;;;2.50;99.90;;;;;;5039709;28;20188;-65
2022/04/20 04:25:00;;;;;;;7.73;5.93;;;2.40;99.90;;;;;;5057010;28;20161;-66
2022/04/20 04:27:26;;;;;;;8.30;5.33;;;2.60;99.90;;;;;;5055626;28;20199;-66
2022/04/20 04:29:51;;;;;;;6.90;5.60;;;2.60;99.90;;;;;;5055588;28;20165;-66
2022/04/20 04:32:17;;;;;;;10.00;6.07;;;2.70;99.90;;;;;;5056044;28;20171;-65
2022/04/20 04:34:42;;;;;;;10.20;5.77;;;2.70;99.90;;;;;;5055324;28;20172;-68
2022/04/20 04:37:10;;;;;;;8.67;6.03;;;2.70;99.90;;;;;;5055742;28;20546;-66
2022/04/20 04:39:35;;;;;;;8.83;6.40;;;2.60;99.90;;;;;;5055859;28;20215;-67
2022/04/20 04:42:01;;;;;;;8.33;6.10;;;2.90;99.90;;;;;;5046205;28;20231;-65
2022/04/20 04:44:28;;;;;;;6.63;5.77;;;2.90;99.90;;;;;;5065928;28;20704;-69
2022/04/20 04:49:38;;;;;;;7.83;5.63;;;2.80;99.90;;;;;;5054695;28;20167;-66
2022/04/20 04:52:06;;;;;;;11.83;6.80;;;2.60;99.90;;;;;;5055184;28;20172;-66
2022/04/20 04:54:33;;;;;;;9.13;6.23;;;2.90;99.90;;;;;;5055011;28;20156;-65
2022/04/20 04:56:59;;;;;;;9.87;6.50;;;2.90;99.90;;;;;;5054718;28;20199;-65
2022/04/20 04:59:24;;;;;;;9.57;6.03;;;2.80;99.90;;;;;;5055074;28;20164;-66
2022/04/20 05:01:50;;;;;;;7.23;5.67;;;2.90;99.90;;;;;;5036988;28;20639;-66
2022/04/20 05:04:16;;;;;;;8.70;5.37;;;2.90;99.90;;;;;;5054892;28;20484;-66
2022/04/20 05:06:42;;;;;;;7.53;6.13;;;2.90;99.90;;;;;;5036550;28;20619;-68
2022/04/20 05:09:08;;;;;;;9.23;5.53;;;2.90;99.90;;;;;;5036852;28;20179;-65
2022/04/20 05:11:33;;;;;;;8.67;6.63;;;2.80;99.90;;;;;;5054133;28;20173;-66
2022/04/20 05:13:59;;;;;;;6.80;5.70;;;2.90;99.90;;;;;;5054966;28;20247;-66
2022/04/20 05:16:25;;;;;;;7.67;6.37;;;3.00;99.90;;;;;;5053994;28;20524;-66
2022/04/20 05:18:51;;;;;;;8.37;6.43;;;3.10;99.90;;;;;;5053832;28;20600;-67
2022/04/20 05:21:17;;;;;;;14.20;6.57;;;3.10;99.90;;;;;;5055324;28;20260;-66
2022/04/20 05:23:43;;;;;;;8.73;6.50;;;3.00;99.90;;;;;;5059666;28;20243;-69
2022/04/20 05:26:09;;;;;;;10.63;6.50;;;3.00;99.90;;;;;;5059668;28;20191;-67
2022/04/20 05:28:34;;;;;;;9.40;7.20;;;3.10;99.90;;;;;;5058269;28;20269;-67
2022/04/20 05:31:00;;;;;;;9.33;6.23;;;3.10;99.90;;;;;;5057645;28;20160;-67
2022/04/20 05:33:25;;;;;;;10.20;6.33;;;3.20;99.90;;;;;;5054223;28;20157;-68
2022/04/20 05:35:51;;;;;;;13.07;7.83;;;3.20;99.90;;;;;;5053724;28;20164;-69
2022/04/20 05:43:44;;;;;;;8.10;6.70;;;3.20;99.90;;;;;;5053973;28;20551;-66
2022/04/20 05:46:13;;;;;;;11.13;7.73;;;3.40;99.90;;;;;;5053804;28;20165;-65
2022/04/20 05:48:39;;;;;;;8.67;6.53;;;3.30;99.90;;;;;;5054769;28;20219;-65
2022/04/20 05:51:05;;;;;;;8.17;6.60;;;3.40;99.90;;;;;;5054399;28;20168;-67
2022/04/20 05:53:31;;;;;;;10.10;7.10;;;3.50;99.90;;;;;;5054416;28;20196;-66
2022/04/20 05:55:56;;;;;;;9.87;6.87;;;3.40;99.90;;;;;;5054387;28;20613;-67
2022/04/20 05:58:22;;;;;;;9.73;6.73;;;3.50;99.90;;;;;;5055084;28;20710;-67
2022/04/20 06:00:47;;;;;;;8.70;6.37;;;3.50;99.90;;;;;;5054609;28;20258;-66
2022/04/20 06:03:13;;;;;;;8.70;6.20;;;3.80;99.90;;;;;;5058698;28;20223;-65
2022/04/20 06:05:39;;;;;;;7.90;6.33;;;3.70;99.90;;;;;;5058159;28;20612;-66
2022/04/20 06:08:04;;;;;;;9.70;5.87;;;3.80;99.90;;;;;;5054928;28;20269;-65
2022/04/20 06:10:32;;;;;;;9.27;6.20;;;3.70;99.90;;;;;;5054546;28;20668;-67
2022/04/20 06:12:58;;;;;;;9.13;5.60;;;3.90;99.90;;;;;;5058834;28;20165;-67
2022/04/20 06:15:24;;;;;;;6.80;5.67;;;3.90;99.90;;;;;;5059787;28;20166;-65
2022/04/20 06:17:49;;;;;;;8.70;6.43;;;3.90;99.90;;;;;;5036658;28;20191;-66
2022/04/20 06:20:15;;;;;;;8.47;6.10;;;3.90;99.90;;;;;;5053488;28;20189;-66
2022/04/20 06:22:41;;;;;;;9.23;6.37;;;4.00;99.90;;;;;;5053547;28;20590;-67
2022/04/20 06:25:06;;;;;;;11.47;6.87;;;4.10;99.90;;;;;;5035585;28;20184;-67
2022/04/20 06:27:32;;;;;;;7.60;6.73;;;4.20;99.90;;;;;;5053011;28;20551;-67
2022/04/20 06:29:58;;;;;;;8.87;6.90;;;4.30;99.90;;;;;;5052795;28;20169;-66
2022/04/20 06:32:24;;;;;;;7.70;6.40;;;4.40;99.90;;;;;;5053716;28;20166;-67
2022/04/20 06:34:54;;;;;;;10.10;6.37;;;4.40;99.90;;;;;;5053461;28;20166;-66
2022/04/20 06:37:21;;;;;;;10.93;6.67;;;4.50;99.90;;;;;;5053555;28;20451;-66
2022/04/20 06:39:46;;;;;;;14.70;9.90;;;4.50;99.90;;;;;;5035460;28;20229;-67
2022/04/20 06:42:12;;;;;;;9.23;6.77;;;4.50;99.90;;;;;;5053259;28;20166;-67
2022/04/20 06:44:38;;;;;;;10.87;6.33;;;4.40;99.90;;;;;;5054054;28;20315;-67
2022/04/20 06:47:04;;;;;;;7.87;6.20;;;4.60;99.90;;;;;;5054235;28;20258;-67
2022/04/20 06:49:30;;;;;;;8.23;6.03;;;4.60;99.90;;;;;;5054920;28;20189;-68
2022/04/20 07:00:09;;;;;;;15.87;11.23;;;4.80;99.90;;;;;;5058529;28;20205;-68
2022/04/20 07:02:35;;;;;;;11.97;8.40;;;4.80;99.90;;;;;;5040372;28;20172;-67
2022/04/20 07:05:01;;;;;;;7.97;6.00;;;5.10;99.90;;;;;;5057303;28;20241;-66
2022/04/20 07:07:27;;;;;;;5.63;4.30;;;5.10;99.90;;;;;;5056963;28;20482;-68
2022/04/20 07:09:53;;;;;;;9.43;6.67;;;5.00;99.90;;;;;;5039609;28;20187;-68
2022/04/20 07:12:18;;;;;;;8.77;6.17;;;5.20;99.90;;;;;;5039704;28;20190;-66
2022/04/20 07:14:44;;;;;;;9.20;6.30;;;5.10;99.90;;;;;;5057841;28;20572;-67
2022/04/20 07:17:10;;;;;;;7.10;5.40;;;5.30;99.90;;;;;;5056727;28;20174;-67
2022/04/20 07:19:35;;;;;;;7.80;5.17;;;5.50;99.90;;;;;;5057012;28;20179;-67
2022/04/20 07:22:01;;;;;;;6.10;4.57;;;5.50;99.90;;;;;;5056322;28;20167;-66
2022/04/20 07:24:27;;;;;;;8.57;5.70;;;5.30;99.90;;;;;;5056792;28;20178;-68
2022/04/20 07:26:53;;;;;;;8.87;6.20;;;5.40;99.90;;;;;;5056279;28;20556;-67
2022/04/20 07:29:18;;;;;;;10.80;6.63;;;5.60;99.90;;;;;;5056761;28;20176;-67
2022/04/20 07:31:45;;;;;;;8.53;5.60;;;5.60;99.90;;;;;;5056325;28;20505;-67
2022/04/20 07:34:12;;;;;;;7.93;5.70;;;5.60;99.90;;;;;;5040292;28;20198;-66
2022/04/20 07:36:37;;;;;;;12.67;5.17;;;5.60;99.90;;;;;;5058231;28;20180;-67
2022/04/20 07:39:03;;;;;;;13.17;5.07;;;5.50;99.90;;;;;;5065663;28;20230;-67
2022/04/20 07:41:28;;;;;;;7.87;5.53;;;5.60;99.90;;;;;;5066153;28;20170;-67
2022/04/20 07:43:54;;;;;;;8.57;6.43;;;5.90;99.90;;;;;;5083380;28;20223;-69
2022/04/20 07:46:20;;;;;;;9.10;6.10;;;6.20;99.90;;;;;;5083092;28;20212;-67
2022/04/20 07:48:46;;;;;;;12.27;6.27;;;6.20;99.90;;;;;;5076508;28;20220;-67
2022/04/20 07:51:13;;;;;;;6.43;4.73;;;6.40;99.90;;;;;;5058477;28;20194;-68
2022/04/20 07:53:39;;;;;;;8.57;5.23;;;6.70;99.90;;;;;;5075899;28;20584;-66
2022/04/20 07:56:05;;;;;;;9.43;5.47;;;6.40;99.90;;;;;;5076436;28;20158;-66
2022/04/20 07:58:31;;;;;;;12.23;5.57;;;6.70;99.90;;;;;;5058451;28;20181;-66
2022/04/20 08:00:57;;;;;;;7.90;5.37;;;6.80;99.90;;;;;;5076501;28;20242;-68
2022/04/20 08:03:24;;;;;;;11.37;5.90;;;6.70;99.90;;;;;;5075661;28;20522;-66
2022/04/20 08:05:55;;;;;;;9.00;5.90;;;6.80;99.90;;;;;;5075848;28;20237;-66
2022/04/20 08:08:22;;;;;;;8.73;5.57;;;7.10;99.90;;;;;;5074833;28;20567;-67
2022/04/20 08:10:48;;;;;;;8.23;5.77;;;7.10;99.90;;;;;;5076213;28;20197;-66
2022/04/20 08:15:58;;;;;;;12.07;5.57;;;7.50;99.90;;;;;;5075516;28;20631;-67
2022/04/20 08:18:25;;;;;;;9.47;5.83;;;7.40;99.90;;;;;;5075734;28;20170;-68
2022/04/20 08:20:51;;;;;;;14.03;5.60;;;7.50;99.90;;;;;;5076069;28;20191;-66
2022/04/20 08:23:16;;;;;;;13.17;7.17;;;7.40;99.90;;;;;;5075985;28;20173;-66
2022/04/20 08:25:43;;;;;;;9.93;6.23;;;7.30;99.90;;;;;;5057887;28;20182;-66
2022/04/20 08:28:10;;;;;;;7.90;5.93;;;7.40;99.90;;;;;;5075218;28;20198;-68
2022/04/20 08:30:37;;;;;;;14.77;6.30;;;7.70;99.90;;;;;;5075316;28;20169;-68
2022/04/20 08:33:06;;;;;;;8.03;5.93;;;7.60;99.90;;;;;;5075261;28;20581;-65
2022/04/20 08:35:33;;;;;;;12.13;6.93;;;7.80;99.90;;;;;;5075373;28;20160;-65
2022/04/20 08:37:58;;;;;;;9.40;6.17;;;7.90;99.90;;;;;;5075719;28;20182;-66
2022/04/20 08:40:25;;;;;;;9.93;5.97;;;7.90;99.90;;;;;;5076471;28;20165;-67
2022/04/20 08:42:52;;;;;;;9.77;5.97;;;7.70;99.90;;;;;;5075604;28;20159;-66
2022/04/20 08:45:20;;;;;;;9.50;6.53;;;7.60;99.90;;;;;;5075209;28;20234;-67
2022/04/20 08:47:49;;;;;;;9.77;6.23;;;7.70;99.90;;;;;;5074993;28;20665;-68
2022/04/20 08:50:16;;;;;;;10.57;6.10;;;7.80;99.90;;;;;;5075700;28;20249;-67
2022/04/20 08:52:46;;;;;;;8.53;6.27;;;8.00;99.90;;;;;;5057568;28;20179;-68
2022/04/20 08:55:17;;;;;;;14.17;5.87;;;8.10;99.90;;;;;;5082205;28;20185;-70
2022/04/20 08:57:47;;;;;;;13.50;6.37;;;8.20;99.90;;;;;;5087563;28;20166;-66
2022/04/20 09:00:27;;;;;;;9.20;6.97;;;8.40;99.90;;;;;;5088538;28;20186;-67
2022/04/20 09:02:57;;;;;;;8.63;6.03;;;8.60;99.90;;;;;;5069617;28;20177;-68
2022/04/20 09:05:25;;;;;;;11.37;6.30;;;8.80;99.90;;;;;;5084716;28;20174;-67
2022/04/20 09:07:52;;;;;;;9.70;6.13;;;8.80;99.90;;;;;;5079064;28;20322;-66
2022/04/20 09:10:18;;;;;;;9.50;6.57;;;8.90;99.90;;;;;;5077252;28;20194;-66
2022/04/20 09:12:45;;;;;;;14.13;7.60;;;8.90;99.90;;;;;;5089482;28;20186;-66
2022/04/20 09:15:14;;;;;;;10.60;5.93;;;8.90;99.90;;;;;;5063441;28;20509;-67
2022/04/20 09:17:45;;;;;;;7.67;5.57;;;9.00;99.90;;;;;;5076284;28;20502;-66
2022/04/20 09:20:17;;;;;;;7.50;6.10;;;9.20;99.90;;;;;;5074705;28;20263;-66
2022/04/20 09:22:59;;;;;;;8.83;6.00;;;9.30;99.90;;;;;;5075966;28;20229;-67
2022/04/20 09:25:33;;;;;;;17.33;7.83;;;9.40;99.90;;;;;;5076575;28;20170;-66
2022/04/20 09:27:59;;;;;;;9.93;7.03;;;9.40;99.90;;;;;;5077563;28;20210;-67
2022/04/20 09:30:24;;;;;;;14.20;9.00;;;9.30;99.90;;;;;;5075028;28;20171;-66
2022/04/20 09:32:50;;;;;;;11.77;7.90;;;9.30;99.90;;;;;;5073498;28;20603;-65
2022/04/20 09:35:21;;;;;;;9.20;6.50;;;9.30;99.90;;;;;;5055833;28;20502;-68
2022/04/20 09:38:03;;;;;;;11.50;5.97;;;9.40;99.90;;;;;;5074205;28;20254;-67
2022/04/20 09:40:33;;;;;;;8.70;6.03;;;9.40;99.90;;;;;;5074387;28;20160;-67
2022/04/20 09:43:04;;;;;;;8.17;6.37;;;9.50;99.90;;;;;;5056303;28;20623;-66
2022/04/20 09:45:30;;;;;;;7.30;5.60;;;9.60;99.90;;;;;;5074518;28;20229;-66
2022/04/20 09:50:42;;;;;;;7.57;5.20;;;9.70;99.90;;;;;;5074199;28;20660;-65
2022/04/20 09:53:12;;;;;;;8.57;5.33;;;9.70;99.90;;;;;;5075376;28;20210;-66
2022/04/20 09:55:40;;;;;;;9.00;5.40;;;9.80;99.90;;;;;;5080203;28;20496;-66
2022/04/20 09:58:19;;;;;;;7.43;4.87;;;9.80;99.90;;;;;;5083055;28;20618;-67
2022/04/20 10:00:47;;;;;;;7.00;4.77;;;9.70;99.90;;;;;;5081661;28;20169;-67
2022/04/20 10:03:31;;;;;;;7.50;4.83;;;9.70;99.90;;;;;;5060879;28;20179;-67
2022/04/20 10:05:57;;;;;;;5.90;4.50;;;9.60;99.90;;;;;;5075048;28;20167;-66
2022/04/20 10:08:23;;;;;;;8.63;5.07;;;9.60;99.90;;;;;;5074048;28;20290;-66
2022/04/20 10:10:51;;;;;;;5.90;4.90;;;9.60;99.90;;;;;;5074352;28;20177;-67
2022/04/20 10:13:17;;;;;;;7.83;5.43;;;9.70;99.90;;;;;;5074581;28;20216;-66
2022/04/20 10:16:06;;;;;;;9.23;4.33;;;9.70;99.90;;;;;;5078224;28;20332;-71
2022/04/20 10:18:37;;;;;;;6.23;4.50;;;9.70;99.90;;;;;;5084141;28;20160;-71
2022/04/20 10:21:06;;;;;;;8.60;5.07;;;9.70;99.90;;;;;;5084735;28;20607;-69
2022/04/20 10:23:34;;;;;;;8.87;5.33;;;9.70;99.90;;;;;;5084185;28;20161;-66
2022/04/20 10:26:01;;;;;;;6.90;4.93;;;9.70;99.90;;;;;;5085381;28;20159;-67
2022/04/20 10:28:54;;;;;;;5.97;4.23;;;9.70;99.90;;;;;;5062951;28;20695;-67
2022/04/20 10:31:38;;;;;;;9.80;4.70;;;9.80;99.90;;;;;;5073478;28;20206;-66
2022/04/20 10:34:05;;;;;;;7.13;4.60;;;9.70;99.90;;;;;;5073940;28;20163;-67
2022/04/20 10:36:32;;;;;;;6.97;4.87;;;9.70;99.90;;;;;;5075056;28;20175;-67
2022/04/20 10:39:22;;;;;;;7.30;4.90;;;9.60;99.90;;;;;;5075102;28;20175;-67
2022/04/20 10:42:15;;;;;;;8.57;4.43;;;9.60;99.90;;;;;;5055877;28;20171;-68
2022/04/20 10:45:00;;;;;;;5.00;3.90;;;9.50;99.90;;;;;;5073391;28;20640;-66
2022/04/20 10:47:27;;;;;;;5.60;4.30;;;9.60;99.90;;;;;;5055391;28;20213;-67
2022/04/20 10:50:09;;;;;;;5.73;4.20;;;9.50;99.90;;;;;;5056378;28;20178;-66
2022/04/20 10:52:38;;;;;;;9.03;5.00;;;9.40;99.90;;;;;;5074055;28;20246;-66
2022/04/20 10:55:05;;;;;;;10.23;4.93;;;9.50;99.90;;;;;;5073776;28;20159;-67
2022/04/20 10:57:35;;;;;;;7.23;4.67;;;9.60;99.90;;;;;;5074274;28;20171;-69
2022/04/20 11:00:16;;;;;;;9.80;4.40;;;9.50;99.90;;;;;;5073745;28;20178;-65
2022/04/20 11:02:52;;;;;;;6.27;4.53;;;9.40;99.90;;;;;;5074003;28;20163;-67
2022/04/20 11:05:24;;;;;;;6.47;4.17;;;9.30;99.90;;;;;;5073512;28;20190;-67
2022/04/20 11:07:59;;;;;;;7.87;4.70;;;9.30;99.90;;;;;;5055574;28;20308;-67
2022/04/20 11:10:26;;;;;;;8.57;5.27;;;9.30;99.90;;;;;;5073514;28;20606;-66
2022/04/20 11:19:10;;;;;;;7.97;5.03;;;9.50;99.90;;;;;;5073580;28;20228;-67
2022/04/20 11:21:36;;;;;;;8.80;5.17;;;9.50;99.90;;;;;;5073010;28;20164;-67
2022/04/20 11:24:07;;;;;;;6.23;4.57;;;9.20;99.90;;;;;;5055748;28;20569;-68
2022/04/20 11:26:49;;;;;;;17.73;8.43;;;9.30;99.90;;;;;;5073834;28;20175;-68
2022/04/20 11:29:24;;;;;;;15.00;7.73;;;9.40;99.90;;;;;;5057755;28;20183;-67
2022/04/20 11:31:58;;;;;;;10.40;5.40;;;9.50;99.90;;;;;;5055849;28;20170;-66
2022/04/20 11:34:26;;;;;;;14.67;7.60;;;9.40;99.90;;;;;;5055598;28;20509;-67
2022/04/20 11:36:53;;;;;;;24.67;8.27;;;9.40;99.90;;;;;;5069508;28;20194;-68
2022/04/20 11:39:21;;;;;;;14.50;8.00;;;9.50;99.90;;;;;;5072930;28;20156;-67
2022/04/20 11:41:52;;;;;;;16.63;8.23;;;9.50;99.90;;;;;;5056166;28;20510;-66
2022/04/20 11:44:29;;;;;;;16.63;8.33;;;9.50;99.90;;;;;;5076666;28;20325;-65
2022/04/20 11:47:01;;;;;;;19.90;8.23;;;9.50;99.90;;;;;;5076051;28;20155;-66
2022/04/20 11:49:42;;;;;;;16.47;7.73;;;9.60;99.90;;;;;;5058401;28;20644;-68
2022/04/20 11:52:11;;;;;;;12.67;5.93;;;9.60;99.90;;;;;;5076580;28;20443;-66
2022/04/20 11:54:38;;;;;;;7.63;5.57;;;9.70;99.90;;;;;;5076578;28;20603;-67
2022/04/20 11:57:06;;;;;;;9.77;5.47;;;9.70;99.90;;;;;;5058978;28;20175;-67
2022/04/20 11:59:32;;;;;;;7.90;5.83;;;9.90;99.90;;;;;;5059242;28;20152;-66
2022/04/20 12:01:58;;;;;;;7.63;5.20;;;9.90;99.90;;;;;;5077790;28;20170;-69
2022/04/20 12:04:28;;;;;;;8.13;5.97;;;10.00;99.90;;;;;;5079436;28;20216;-67
2022/04/20 12:06:59;;;;;;;6.67;4.80;;;9.80;99.90;;;;;;5080401;28;20170;-67
2022/04/20 12:09:27;;;;;;;11.23;5.23;;;9.60;99.90;;;;;;5079559;28;20258;-66
2022/04/20 12:12:03;;;;;;;48.20;30.60;;;9.50;99.90;;;;;;5084777;28;20179;-65
2022/04/20 12:14:35;;;;;;;8.30;5.73;;;9.60;99.90;;;;;;5086189;28;20666;-67
2022/04/20 12:17:20;;;;;;;8.67;6.33;;;9.50;99.90;;;;;;5089073;28;20172;-67
2022/04/20 12:19:46;;;;;;;8.03;4.93;;;9.30;99.90;;;;;;5075721;28;20485;-67
2022/04/20 12:22:14;;;;;;;7.00;5.70;;;9.20;99.90;;;;;;5075570;28;20152;-67
2022/04/20 12:24:43;;;;;;;9.27;6.00;;;9.20;99.90;;;;;;5076144;28;20163;-66
2022/04/20 12:27:20;;;;;;;8.47;5.60;;;9.20;99.90;;;;;;5075845;28;20163;-66
2022/04/20 12:29:59;;;;;;;19.57;9.03;;;9.10;99.90;;;;;;5075673;28;20178;-66
2022/04/20 12:32:32;;;;;;;9.50;5.83;;;9.10;99.90;;;;;;5075155;28;20259;-65
2022/04/20 12:35:01;;;;;;;15.37;7.47;;;9.20;99.90;;;;;;5057355;28;20181;-67
2022/04/20 12:37:31;;;;;;;8.07;5.97;;;9.30;99.90;;;;;;5076008;28;20593;-67
2022/04/20 12:40:27;;;;;;;9.87;6.80;;;9.50;99.90;;;;;;5075834;28;20177;-67
2022/04/20 12:43:05;;;;;;;9.27;6.17;;;9.50;99.90;;;;;;5075213;28;20194;-65
2022/04/20 12:45:32;;;;;;;7.17;5.67;;;9.50;99.90;;;;;;5075169;28;20269;-66
2022/04/20 12:48:05;;;;;;;8.30;5.77;;;9.50;99.90;;;;;;5074908;28;20286;-66
2022/04/20 12:50:50;;;;;;;8.90;6.20;;;9.30;99.90;;;;;;5075639;28;20168;-66
2022/04/20 12:53:16;;;;;;;9.47;5.47;;;9.30;99.90;;;;;;5076715;28;20181;-66
2022/04/20 12:55:44;;;;;;;9.47;5.87;;;9.20;99.90;;;;;;5074816;28;20646;-66
2022/04/20 13:03:44;;;;;;;8.93;5.63;;;9.20;99.90;;;;;;5074480;28;20193;-66
2022/04/20 13:06:11;;;;;;;13.30;5.30;;;9.10;99.90;;;;;;5074585;28;20167;-65
2022/04/20 13:08:40;;;;;;;11.57;5.67;;;9.20;99.90;;;;;;5074422;28;20195;-65
2022/04/20 13:11:10;;;;;;;6.67;5.17;;;9.30;99.90;;;;;;5056891;28;20187;-65
2022/04/20 13:13:36;;;;;;;8.73;5.77;;;9.50;99.90;;;;;;5074734;28;20163;-66
2022/04/20 13:16:10;;;;;;;6.17;4.97;;;9.40;99.90;;;;;;5074691;28;20175;-66
2022/04/20 13:18:37;;;;;;;7.43;5.07;;;9.20;99.90;;;;;;5075077;28;20175;-65
2022/04/20 13:21:03;;;;;;;7.93;5.23;;;9.20;99.90;;;;;;5074773;28;20505;-65
2022/04/20 13:23:29;;;;;;;9.97;5.70;;;9.20;99.90;;;;;;5074114;28;20225;-65
2022/04/20 13:28:39;;;;;;;6.10;5.50;;;9.10;99.90;;;;;;5073981;28;20715;-66
2022/04/20 13:31:05;;;;;;;10.60;6.13;;;9.30;99.90;;;;;;5074015;28;20164;-68
2022/04/20 13:33:31;;;;;;;7.53;5.37;;;9.50;99.90;;;;;;5074151;28;20163;-67
2022/04/20 13:35:56;;;;;;;11.40;6.30;;;9.40;99.90;;;;;;5074517;28;20240;-66
2022/04/20 13:38:23;;;;;;;10.97;6.23;;;9.40;99.90;;;;;;5073662;28;20167;-67
2022/04/20 13:40:49;;;;;;;8.87;5.70;;;9.20;99.90;;;;;;5056528;28;20274;-65